Time;durP1;ratioP1;P1;durP2;ratioP2;P2;SDS_P1;SDS_P2;PMS_P1;PMS_P2;Temp;Humidity;BMP_temperature;BMP_pressure;BME280_temperature;BME280_humidity;BME280_pressure;Samples;Min_cycle;Max_cycle;Signal;HPM_P1;HPM_P2
2022/12/21 00:01:24;;;;;;;1.48;0.70;;;14.30;62.10;;;;;;5058521;28;20048;-47
2022/12/21 00:03:54;;;;;;;1.38;0.80;;;14.30;62.10;;;;;;5060508;28;20488;-45
2022/12/21 00:06:22;;;;;;;1.00;0.90;;;14.30;62.20;;;;;;5063153;28;20408;-47
2022/12/21 00:08:53;;;;;;;0.80;0.80;;;14.30;62.30;;;;;;5063377;28;20052;-49
2022/12/21 00:11:22;;;;;;;0.60;0.60;;;14.30;62.40;;;;;;5062752;28;20052;-47
2022/12/21 00:13:50;;;;;;;2.10;0.65;;;14.30;62.50;;;;;;5064821;28;20048;-46
2022/12/21 00:16:21;;;;;;;1.60;0.70;;;14.30;62.60;;;;;;5062090;28;20060;-45
2022/12/21 00:18:48;;;;;;;3.42;0.90;;;14.30;62.60;;;;;;5064049;28;20055;-45
2022/12/21 00:21:17;;;;;;;1.30;0.85;;;14.30;62.50;;;;;;5062787;28;20381;-44
2022/12/21 00:23:46;;;;;;;3.47;0.70;;;14.30;62.50;;;;;;5062724;28;20060;-47
2022/12/21 00:26:16;;;;;;;1.10;0.60;;;14.30;62.60;;;;;;5063999;28;20500;-46
2022/12/21 00:28:43;;;;;;;1.20;0.73;;;14.30;62.80;;;;;;5063088;28;20049;-44
2022/12/21 00:31:12;;;;;;;1.40;0.68;;;14.30;62.80;;;;;;5061807;28;20053;-48
2022/12/21 00:33:41;;;;;;;1.17;0.57;;;14.30;62.90;;;;;;5063343;28;20515;-47
2022/12/21 00:36:11;;;;;;;0.68;0.63;;;14.30;62.80;;;;;;5063816;28;20507;-47
2022/12/21 00:38:38;;;;;;;1.45;0.77;;;14.30;62.80;;;;;;5061562;28;20605;-44
2022/12/21 00:41:09;;;;;;;1.30;0.80;;;14.30;62.80;;;;;;5062000;28;20604;-46
2022/12/21 00:43:39;;;;;;;1.55;0.90;;;14.30;62.90;;;;;;5063889;28;20052;-47
2022/12/21 00:46:07;;;;;;;1.13;0.70;;;14.30;63.00;;;;;;5061424;28;20056;-46
2022/12/21 00:48:36;;;;;;;2.00;1.05;;;14.30;62.90;;;;;;5062654;28;20064;-47
2022/12/21 00:51:04;;;;;;;1.08;0.82;;;14.30;62.80;;;;;;5062157;28;20052;-46
2022/12/21 00:53:31;;;;;;;2.00;1.02;;;14.30;62.80;;;;;;5062681;28;20063;-46
2022/12/21 00:56:00;;;;;;;2.00;1.10;;;14.30;62.70;;;;;;5063141;28;20059;-50
2022/12/21 00:58:29;;;;;;;6.47;1.10;;;14.30;62.60;;;;;;5064316;28;20059;-47
2022/12/21 01:00:59;;;;;;;2.30;1.00;;;14.30;62.70;;;;;;5063066;28;20053;-48
2022/12/21 01:03:27;;;;;;;3.30;1.70;;;14.30;63.20;;;;;;5062407;28;20051;-49
2022/12/21 01:05:55;;;;;;;3.95;2.08;;;14.30;63.40;;;;;;5063169;28;20052;-44
2022/12/21 01:08:23;;;;;;;8.35;2.83;;;14.20;63.70;;;;;;5063188;28;20051;-48
2022/12/21 01:10:56;;;;;;;3.95;2.58;;;14.10;64.70;;;;;;5062522;28;20052;-44
2022/12/21 01:13:23;;;;;;;4.28;2.20;;;14.10;64.80;;;;;;5063542;28;20541;-44
2022/12/21 01:15:50;;;;;;;3.83;2.63;;;14.00;65.00;;;;;;5062139;28;20052;-44
2022/12/21 01:18:19;;;;;;;3.05;2.20;;;14.00;65.20;;;;;;5062350;28;20052;-43
2022/12/21 01:20:49;;;;;;;3.42;2.42;;;14.00;65.40;;;;;;5062589;28;20049;-43
2022/12/21 01:23:16;;;;;;;4.45;2.20;;;13.90;65.50;;;;;;5061274;28;20464;-45
2022/12/21 01:25:44;;;;;;;5.45;2.10;;;13.90;65.50;;;;;;5062549;28;20056;-46
2022/12/21 01:28:11;;;;;;;3.47;2.20;;;13.90;65.60;;;;;;5063467;28;20389;-47
2022/12/21 01:30:39;;;;;;;2.78;1.63;;;13.90;65.60;;;;;;5061852;28;20052;-43
2022/12/21 01:33:07;;;;;;;4.13;1.70;;;13.90;65.60;;;;;;5063846;28;20063;-44
2022/12/21 01:35:39;;;;;;;2.60;1.80;;;13.90;65.60;;;;;;5062717;28;20056;-47
2022/12/21 01:38:06;;;;;;;2.17;1.77;;;13.90;65.60;;;;;;5063232;28;20396;-46
2022/12/21 01:40:37;;;;;;;1.70;1.55;;;13.90;65.40;;;;;;5057008;28;20064;-45
2022/12/21 01:43:18;;;;;;;2.80;2.10;;;14.00;65.40;;;;;;5063204;28;20057;-45
2022/12/21 01:45:51;;;;;;;3.00;2.30;;;14.00;65.60;;;;;;5061049;28;20060;-43
2022/12/21 01:48:20;;;;;;;2.58;1.75;;;14.00;65.40;;;;;;5063200;28;20053;-47
2022/12/21 01:50:56;;;;;;;2.10;1.90;;;14.00;65.30;;;;;;5061664;28;20055;-46
2022/12/21 01:53:30;;;;;;;2.22;1.40;;;14.00;65.30;;;;;;5058597;28;20055;-48
2022/12/21 01:56:00;;;;;;;1.30;1.20;;;14.00;65.20;;;;;;5062543;28;20447;-44
2022/12/21 01:58:29;;;;;;;1.98;1.30;;;14.00;65.10;;;;;;5062482;28;20523;-45
2022/12/21 02:00:59;;;;;;;1.35;1.10;;;14.00;65.00;;;;;;5062958;28;20055;-45
2022/12/21 02:03:31;;;;;;;1.88;1.20;;;14.00;65.00;;;;;;5061831;28;20060;-44
2022/12/21 02:06:04;;;;;;;1.25;1.15;;;14.00;64.90;;;;;;5058059;28;20523;-45
2022/12/21 02:08:31;;;;;;;1.00;0.90;;;14.10;64.90;;;;;;5059992;28;20500;-48
2022/12/21 02:11:00;;;;;;;3.17;1.13;;;14.10;64.80;;;;;;5062958;28;20055;-47
2022/12/21 02:13:27;;;;;;;1.98;0.90;;;14.10;64.60;;;;;;5061833;28;20044;-47
2022/12/21 02:16:23;;;;;;;0.95;0.82;;;14.10;64.60;;;;;;5060257;28;20393;-47
2022/12/21 02:19:07;;;;;;;1.13;0.90;;;14.10;64.40;;;;;;5055456;28;20052;-48
2022/12/21 02:21:39;;;;;;;1.25;0.90;;;14.10;64.30;;;;;;5061767;28;20045;-45
2022/12/21 02:24:44;;;;;;;1.88;0.70;;;14.10;64.20;;;;;;5059619;28;20491;-46
2022/12/21 02:27:36;;;;;;;0.95;0.68;;;14.10;64.10;;;;;;5027232;28;20052;-44
2022/12/21 02:30:15;;;;;;;0.68;0.60;;;14.10;63.90;;;;;;5058628;28;20048;-49
2022/12/21 02:33:05;;;;;;;1.15;0.73;;;14.10;63.70;;;;;;5062239;28;20060;-44
2022/12/21 02:35:46;;;;;;;1.20;0.47;;;14.10;63.70;;;;;;5059891;28;20495;-49
2022/12/21 02:38:35;;;;;;;0.95;0.70;;;14.10;63.80;;;;;;5053800;28;20384;-48
2022/12/21 02:41:09;;;;;;;0.50;0.50;;;14.10;63.90;;;;;;5062342;28;20488;-47
2022/12/21 02:46:35;;;;;;;1.55;0.70;;;14.10;63.90;;;;;;5065925;28;20059;-49
2022/12/21 02:49:06;;;;;;;1.10;0.70;;;14.10;63.90;;;;;;5061643;28;20487;-44
2022/12/21 02:51:40;;;;;;;0.77;0.68;;;14.10;64.00;;;;;;5060656;28;21984;-44
2022/12/21 02:54:08;;;;;;;2.53;0.80;;;14.10;64.10;;;;;;5058033;28;20568;-43
2022/12/21 02:56:35;;;;;;;1.08;0.68;;;14.10;64.10;;;;;;5059077;28;20519;-47
2022/12/21 02:59:03;;;;;;;0.95;0.50;;;14.10;64.20;;;;;;5062451;28;20512;-48
2022/12/21 03:01:48;;;;;;;1.05;0.60;;;14.10;64.20;;;;;;5059420;28;20056;-48
2022/12/21 03:04:36;;;;;;;0.77;0.50;;;14.10;64.20;;;;;;5021439;28;20054;-45
2022/12/21 03:07:24;;;;;;;0.70;0.50;;;14.10;64.90;;;;;;5021172;28;20520;-46
2022/12/21 03:10:00;;;;;;;2.08;0.60;;;14.20;64.20;;;;;;5018432;28;20084;-45
2022/12/21 03:12:39;;;;;;;0.55;0.55;;;14.20;64.10;;;;;;5021016;28;20057;-45
2022/12/21 03:15:18;;;;;;;1.38;0.63;;;14.20;64.10;;;;;;5020670;28;20053;-49
2022/12/21 03:17:50;;;;;;;1.15;0.60;;;14.20;64.10;;;;;;5022648;28;20049;-47
2022/12/21 03:20:28;;;;;;;0.77;0.47;;;14.20;64.20;;;;;;5021812;28;20505;-47
2022/12/21 03:23:00;;;;;;;0.65;0.50;;;14.20;64.20;;;;;;5019730;28;20064;-46
2022/12/21 03:25:32;;;;;;;0.80;0.60;;;14.20;64.10;;;;;;5018900;28;20049;-46
2022/12/21 03:28:04;;;;;;;1.08;0.70;;;14.20;64.00;;;;;;5020249;28;20501;-47
2022/12/21 03:30:54;;;;;;;0.85;0.57;;;14.20;63.90;;;;;;5019686;28;20049;-49
2022/12/21 03:33:26;;;;;;;2.10;0.70;;;14.20;63.90;;;;;;5016790;28;20064;-49
2022/12/21 03:36:00;;;;;;;0.82;0.63;;;14.20;63.70;;;;;;5021190;28;20057;-49
2022/12/21 03:38:33;;;;;;;0.43;0.40;;;14.20;63.60;;;;;;5017690;28;20053;-47
2022/12/21 03:41:03;;;;;;;0.52;0.47;;;14.20;63.50;;;;;;5022064;28;20049;-50
2022/12/21 03:43:33;;;;;;;3.05;0.55;;;14.20;63.40;;;;;;5019415;28;20057;-48
2022/12/21 03:46:05;;;;;;;10.55;0.75;;;14.20;63.40;;;;;;5018809;28;21391;-48
2022/12/21 03:48:37;;;;;;;1.08;0.77;;;14.20;63.40;;;;;;5020226;28;20061;-50
2022/12/21 03:51:10;;;;;;;0.57;0.50;;;14.20;63.50;;;;;;5019634;28;20056;-47
2022/12/21 03:53:44;;;;;;;1.60;0.45;;;14.20;63.40;;;;;;5017237;28;20050;-50
2022/12/21 03:56:17;;;;;;;0.73;0.68;;;14.20;63.20;;;;;;5018739;28;20069;-47
2022/12/21 03:58:44;;;;;;;1.35;0.63;;;14.20;63.20;;;;;;5020825;28;20516;-48
2022/12/21 04:01:19;;;;;;;1.60;0.60;;;14.20;63.10;;;;;;5015717;28;20173;-46
2022/12/21 04:03:49;;;;;;;0.80;0.57;;;14.10;62.90;;;;;;5051321;28;20053;-45
2022/12/21 04:06:21;;;;;;;0.47;0.40;;;14.20;63.00;;;;;;5059606;28;20052;-48
2022/12/21 04:08:49;;;;;;;0.90;0.50;;;14.20;63.00;;;;;;5057335;28;20044;-50
2022/12/21 04:13:58;;;;;;;0.82;0.50;;;14.20;63.20;;;;;;5054097;28;20056;-48
2022/12/21 04:16:25;;;;;;;0.50;0.50;;;14.10;63.20;;;;;;5052962;28;20056;-48
2022/12/21 04:21:38;;;;;;;1.23;0.45;;;14.10;63.10;;;;;;5063187;28;20044;-47
2022/12/21 04:29:35;;;;;;;;;;;14.10;63.10;;;;;;5064374;28;20055;-46
2022/12/21 04:32:02;;;;;;;0.60;0.43;;;14.10;63.20;;;;;;5058737;28;19924;-47
2022/12/21 04:34:30;;;;;;;1.00;0.80;;;14.10;62.90;;;;;;5059648;28;20052;-45
2022/12/21 04:39:43;;;;;;;0.73;0.55;;;14.10;63.00;;;;;;5064886;28;20411;-48
2022/12/21 04:42:10;;;;;;;0.75;0.43;;;14.10;63.10;;;;;;5061142;28;20055;-45
2022/12/21 04:44:37;;;;;;;1.30;0.50;;;14.00;63.10;;;;;;5058206;28;20045;-48
2022/12/21 04:47:05;;;;;;;0.50;0.50;;;14.00;63.20;;;;;;5060300;28;20048;-45
2022/12/21 04:49:32;;;;;;;0.50;0.50;;;14.00;63.30;;;;;;5058995;28;20086;-49
2022/12/21 04:52:01;;;;;;;0.38;0.38;;;14.00;63.30;;;;;;5056728;28;20052;-49
2022/12/21 04:54:28;;;;;;;0.73;0.30;;;14.00;63.30;;;;;;5062024;28;20053;-44
2022/12/21 04:56:55;;;;;;;0.80;0.50;;;14.00;63.40;;;;;;5061683;28;20044;-46
2022/12/21 04:59:22;;;;;;;0.40;0.38;;;14.00;63.40;;;;;;5061750;28;20510;-47
2022/12/21 05:01:49;;;;;;;0.47;0.38;;;14.00;63.40;;;;;;5062774;28;20060;-43
2022/12/21 05:04:17;;;;;;;1.27;0.50;;;14.00;63.50;;;;;;5063208;28;20491;-45
2022/12/21 05:06:44;;;;;;;0.63;0.40;;;14.00;63.50;;;;;;5064788;28;20053;-43
2022/12/21 05:09:13;;;;;;;3.00;0.45;;;14.00;63.60;;;;;;5060840;28;20048;-49
2022/12/21 05:11:41;;;;;;;0.60;0.50;;;14.00;63.60;;;;;;5063697;28;20052;-44
2022/12/21 05:14:08;;;;;;;0.70;0.50;;;14.00;63.70;;;;;;5062329;28;20079;-45
2022/12/21 05:16:38;;;;;;;0.40;0.40;;;14.00;63.80;;;;;;5060460;28;20055;-44
2022/12/21 05:19:05;;;;;;;0.95;0.65;;;14.00;63.80;;;;;;5059843;28;20511;-46
2022/12/21 05:21:32;;;;;;;0.88;0.60;;;14.00;63.80;;;;;;5059253;28;20048;-45
2022/12/21 05:24:00;;;;;;;0.60;0.50;;;14.00;63.90;;;;;;5062127;28;20064;-45
2022/12/21 05:26:28;;;;;;;0.95;0.60;;;14.00;63.90;;;;;;5062704;28;20044;-47
2022/12/21 05:28:55;;;;;;;3.85;0.30;;;14.00;63.80;;;;;;5061194;28;20076;-44
2022/12/21 05:31:23;;;;;;;1.05;0.55;;;14.00;63.80;;;;;;5062810;28;20052;-45
2022/12/21 05:33:50;;;;;;;2.72;0.55;;;14.00;63.80;;;;;;5061530;28;20048;-46
2022/12/21 05:36:18;;;;;;;0.60;0.60;;;14.00;63.70;;;;;;5061252;28;20048;-46
2022/12/21 05:38:46;;;;;;;1.02;0.60;;;14.00;63.60;;;;;;5061392;28;20079;-43
2022/12/21 05:41:14;;;;;;;0.77;0.68;;;14.00;63.60;;;;;;5062727;28;20055;-48
2022/12/21 05:43:43;;;;;;;3.42;1.75;;;13.90;63.70;;;;;;5060956;28;20053;-48
2022/12/21 05:46:12;;;;;;;27.58;12.20;;;13.90;63.70;;;;;;5062939;28;20056;-47
2022/12/21 05:48:39;;;;;;;12.75;5.18;;;13.90;63.80;;;;;;5062341;28;20583;-48
2022/12/21 05:51:08;;;;;;;4.70;2.30;;;13.90;63.80;;;;;;5062135;28;20480;-45
2022/12/21 05:53:36;;;;;;;2.75;1.40;;;13.90;63.90;;;;;;5060899;28;20420;-46
2022/12/21 05:56:04;;;;;;;2.30;1.13;;;14.00;64.10;;;;;;5062605;28;20063;-47
2022/12/21 05:58:31;;;;;;;1.55;1.00;;;14.00;64.00;;;;;;5061350;28;20527;-47
2022/12/21 06:01:02;;;;;;;2.15;1.20;;;14.00;63.90;;;;;;5062504;28;20052;-46
2022/12/21 06:03:29;;;;;;;1.50;1.08;;;13.90;63.80;;;;;;5057066;28;20524;-46
2022/12/21 06:06:02;;;;;;;2.55;1.35;;;13.90;63.80;;;;;;5061773;28;20523;-47
2022/12/21 06:08:31;;;;;;;1.50;1.40;;;13.90;63.80;;;;;;5060201;28;20431;-44
2022/12/21 06:11:03;;;;;;;1.23;1.13;;;13.90;63.70;;;;;;5061105;28;20041;-46
2022/12/21 06:13:30;;;;;;;24.00;10.23;;;13.90;63.70;;;;;;5062232;28;20052;-44
2022/12/21 06:16:04;;;;;;;11.27;5.63;;;13.90;63.70;;;;;;5061316;28;20064;-46
2022/12/21 06:18:31;;;;;;;3.72;2.60;;;13.90;63.70;;;;;;5059212;28;20049;-48
2022/12/21 06:20:58;;;;;;;2.55;1.92;;;13.90;63.70;;;;;;5061694;28;20059;-48
2022/12/21 06:23:26;;;;;;;3.25;1.70;;;13.90;63.70;;;;;;5060288;28;20722;-47
2022/12/21 06:25:56;;;;;;;2.17;1.48;;;13.80;63.70;;;;;;5060999;28;20049;-46
2022/12/21 06:28:25;;;;;;;1.70;1.30;;;13.90;63.90;;;;;;5061609;28;20511;-45
2022/12/21 06:30:52;;;;;;;1.98;1.25;;;13.80;63.90;;;;;;5061995;28;20488;-46
2022/12/21 06:33:22;;;;;;;3.28;1.50;;;13.80;64.00;;;;;;5059431;28;20056;-48
2022/12/21 06:35:55;;;;;;;1.40;1.30;;;13.80;64.10;;;;;;5059060;28;20067;-46
2022/12/21 06:38:22;;;;;;;1.63;1.33;;;13.80;64.10;;;;;;5062155;28;20343;-50
2022/12/21 06:40:54;;;;;;;1.63;1.33;;;13.80;64.10;;;;;;5061201;28;20056;-51
2022/12/21 06:43:21;;;;;;;3.10;1.73;;;13.80;64.10;;;;;;5059521;28;20768;-46
2022/12/21 06:45:59;;;;;;;2.70;1.55;;;13.80;64.00;;;;;;5060707;28;20052;-50
2022/12/21 06:48:30;;;;;;;2.88;1.77;;;13.70;63.80;;;;;;5059950;28;20063;-49
2022/12/21 06:50:59;;;;;;;2.17;1.98;;;13.80;63.90;;;;;;5060111;28;20048;-43
2022/12/21 06:53:29;;;;;;;3.20;1.60;;;13.80;63.90;;;;;;5060010;28;20040;-47
2022/12/21 06:56:00;;;;;;;2.42;2.17;;;13.80;64.00;;;;;;5060268;28;20091;-48
2022/12/21 06:58:27;;;;;;;5.10;3.38;;;13.80;64.10;;;;;;5059444;28;20052;-47
2022/12/21 07:00:54;;;;;;;5.78;4.18;;;13.80;64.00;;;;;;5055936;28;20053;-45
2022/12/21 07:03:22;;;;;;;9.20;6.13;;;13.80;64.00;;;;;;5057053;28;20048;-47
2022/12/21 07:05:51;;;;;;;16.48;9.90;;;13.70;63.90;;;;;;5059244;28;20055;-47
2022/12/21 07:08:18;;;;;;;50.45;29.05;;;13.80;64.00;;;;;;5057951;28;20052;-47
2022/12/21 07:10:45;;;;;;;35.25;20.02;;;13.70;64.00;;;;;;5061086;28;22273;-42
2022/12/21 07:13:12;;;;;;;19.90;13.02;;;13.70;64.00;;;;;;5059739;28;20056;-47
2022/12/21 07:15:40;;;;;;;11.27;7.57;;;13.70;64.00;;;;;;5059789;28;20053;-46
2022/12/21 07:18:07;;;;;;;5.45;4.30;;;13.70;64.00;;;;;;5058538;28;20057;-44
2022/12/21 07:20:35;;;;;;;5.13;3.63;;;13.70;64.00;;;;;;5061757;28;20048;-47
2022/12/21 07:23:03;;;;;;;4.28;2.83;;;13.70;64.00;;;;;;5060562;28;20063;-48
2022/12/21 07:25:30;;;;;;;3.03;2.65;;;13.70;64.00;;;;;;5061119;28;20052;-46
2022/12/21 07:27:58;;;;;;;3.03;2.63;;;13.70;64.00;;;;;;5061462;28;20056;-45
2022/12/21 07:30:25;;;;;;;2.50;2.15;;;13.70;64.00;;;;;;5060825;28;20060;-46
2022/12/21 07:32:54;;;;;;;3.17;2.60;;;13.70;64.00;;;;;;5060830;28;20060;-48
2022/12/21 07:35:21;;;;;;;2.05;1.85;;;13.70;64.00;;;;;;5061055;28;20068;-47
2022/12/21 07:37:49;;;;;;;2.47;2.15;;;13.70;64.00;;;;;;5060986;28;20075;-44
2022/12/21 07:40:18;;;;;;;2.28;1.70;;;13.60;64.00;;;;;;5053519;28;20071;-48
2022/12/21 07:42:46;;;;;;;3.33;1.98;;;13.70;64.10;;;;;;5058615;28;20427;-46
2022/12/21 07:45:14;;;;;;;2.70;2.05;;;13.70;64.10;;;;;;5056063;28;20052;-45
2022/12/21 07:47:41;;;;;;;2.15;1.83;;;13.70;64.10;;;;;;5061669;28;20432;-45
2022/12/21 07:50:09;;;;;;;2.25;2.00;;;13.70;64.10;;;;;;5060423;28;20063;-43
2022/12/21 07:52:38;;;;;;;2.58;2.08;;;13.60;64.00;;;;;;5058268;28;20052;-50
2022/12/21 07:55:06;;;;;;;6.22;3.75;;;13.60;64.00;;;;;;5059609;28;20052;-48
2022/12/21 07:57:35;;;;;;;18.00;8.55;;;13.60;64.10;;;;;;5059911;28;20500;-51
2022/12/21 08:00:03;;;;;;;15.65;7.68;;;13.60;64.10;;;;;;5061112;28;20064;-47
2022/12/21 08:02:30;;;;;;;5.72;3.53;;;13.60;64.20;;;;;;5061219;28;20048;-47
2022/12/21 08:04:58;;;;;;;3.47;2.50;;;13.60;64.20;;;;;;5058820;28;20056;-43
2022/12/21 08:07:25;;;;;;;2.60;1.92;;;13.60;64.20;;;;;;5061955;28;20049;-45
2022/12/21 08:09:53;;;;;;;2.00;1.80;;;13.60;64.30;;;;;;5059407;28;20056;-44
2022/12/21 08:12:20;;;;;;;2.15;1.90;;;13.60;64.30;;;;;;5058786;28;20049;-45
2022/12/21 08:14:49;;;;;;;1.55;1.45;;;13.60;64.30;;;;;;5060508;28;20045;-47
2022/12/21 08:17:16;;;;;;;2.17;1.73;;;13.60;64.30;;;;;;5058536;28;20063;-44
2022/12/21 08:19:43;;;;;;;2.70;1.65;;;13.60;64.30;;;;;;5058127;28;20060;-45
2022/12/21 08:22:11;;;;;;;2.28;1.80;;;13.60;64.30;;;;;;5057518;28;20055;-49
2022/12/21 08:24:39;;;;;;;1.60;1.50;;;13.60;64.30;;;;;;5056525;28;20095;-46
2022/12/21 08:27:06;;;;;;;1.83;1.50;;;13.60;64.30;;;;;;5062761;28;20056;-47
2022/12/21 08:29:34;;;;;;;2.42;1.77;;;13.60;64.30;;;;;;5060446;28;20059;-47
2022/12/21 08:32:02;;;;;;;5.10;1.73;;;13.60;64.40;;;;;;5064387;28;20049;-45
2022/12/21 08:34:29;;;;;;;2.15;1.80;;;13.60;64.40;;;;;;5062789;28;20041;-48
2022/12/21 08:36:57;;;;;;;4.63;2.10;;;13.60;64.40;;;;;;5060736;28;20053;-44
2022/12/21 08:39:24;;;;;;;1.98;1.70;;;13.60;64.40;;;;;;5063451;28;20056;-49
2022/12/21 08:41:51;;;;;;;2.85;1.50;;;13.60;64.50;;;;;;5063921;28;20052;-48
2022/12/21 08:44:19;;;;;;;1.95;1.50;;;13.60;64.50;;;;;;5064329;28;20044;-46
2022/12/21 08:46:46;;;;;;;2.78;1.60;;;13.60;64.60;;;;;;5063229;28;20060;-45
2022/12/21 08:49:14;;;;;;;1.92;1.63;;;13.60;64.60;;;;;;5063759;28;20480;-46
2022/12/21 08:51:42;;;;;;;3.75;1.60;;;13.60;64.80;;;;;;5064138;28;20059;-43
2022/12/21 08:54:09;;;;;;;2.53;1.40;;;13.70;64.90;;;;;;5063262;28;20403;-47
2022/12/21 08:56:36;;;;;;;1.67;1.40;;;13.70;65.00;;;;;;5063523;28;20508;-47
2022/12/21 08:59:05;;;;;;;1.92;1.40;;;13.70;65.10;;;;;;5062750;28;21585;-47
2022/12/21 09:01:33;;;;;;;2.53;1.20;;;13.70;65.10;;;;;;5063893;28;20468;-46
2022/12/21 09:04:01;;;;;;;1.73;1.45;;;13.70;65.10;;;;;;5063293;28;20059;-48
2022/12/21 09:06:30;;;;;;;1.30;1.10;;;13.70;65.10;;;;;;5063454;28;20048;-47
2022/12/21 09:08:57;;;;;;;1.77;1.05;;;13.70;65.10;;;;;;5062868;28;20056;-50
2022/12/21 09:11:27;;;;;;;1.40;1.20;;;13.70;65.10;;;;;;5064012;28;20503;-47
2022/12/21 09:13:54;;;;;;;1.50;1.10;;;13.80;65.20;;;;;;5063548;28;20131;-44
2022/12/21 09:16:23;;;;;;;0.82;0.80;;;13.70;65.10;;;;;;5063168;28;20507;-48
2022/12/21 09:18:51;;;;;;;4.45;1.45;;;13.80;65.20;;;;;;5060748;28;20049;-50
2022/12/21 09:21:20;;;;;;;2.83;0.82;;;13.80;65.20;;;;;;5064258;28;21512;-50
2022/12/21 09:23:49;;;;;;;0.60;0.52;;;13.80;65.30;;;;;;5063897;28;20064;-47
2022/12/21 09:26:17;;;;;;;1.48;0.70;;;13.80;65.40;;;;;;5061340;28;20063;-46
2022/12/21 09:28:47;;;;;;;0.93;0.77;;;13.80;66.00;;;;;;5062243;28;20048;-49
2022/12/21 09:31:16;;;;;;;2.03;1.17;;;13.80;65.30;;;;;;5064992;28;20052;-47
2022/12/21 09:33:44;;;;;;;0.45;0.45;;;13.80;65.40;;;;;;5064146;28;20093;-46
2022/12/21 09:36:12;;;;;;;0.52;0.52;;;13.90;65.70;;;;;;5065201;28;20059;-48
2022/12/21 09:38:40;;;;;;;0.60;0.60;;;13.90;65.80;;;;;;5062922;28;20559;-45
2022/12/21 09:41:44;;;;;;;0.80;0.47;;;13.90;65.90;;;;;;5064117;28;20571;-46
2022/12/21 09:44:28;;;;;;;1.92;0.47;;;13.90;65.40;;;;;;5048443;28;20488;-46
2022/12/21 09:46:59;;;;;;;0.60;0.47;;;14.00;65.00;;;;;;5064919;28;20052;-46
2022/12/21 09:49:40;;;;;;;0.73;0.40;;;14.00;65.20;;;;;;5064000;28;20057;-48
2022/12/21 09:52:23;;;;;;;24.95;10.75;;;14.00;65.30;;;;;;5064102;28;20056;-46
2022/12/21 09:54:57;;;;;;;11.00;3.70;;;14.00;65.20;;;;;;5063325;28;20052;-48
2022/12/21 09:57:31;;;;;;;3.65;1.27;;;14.00;66.00;;;;;;5063280;28;20049;-44
2022/12/21 09:59:59;;;;;;;0.63;0.50;;;14.10;64.70;;;;;;5063707;28;20051;-47
2022/12/21 10:02:45;;;;;;;1.15;0.70;;;14.00;64.40;;;;;;5064039;28;20063;-45
2022/12/21 10:05:30;;;;;;;0.40;0.40;;;14.10;64.70;;;;;;5063568;28;20416;-48
2022/12/21 10:08:25;;;;;;;1.02;0.20;;;14.10;65.10;;;;;;5063089;28;20060;-46
2022/12/21 10:11:01;;;;;;;0.90;0.80;;;14.10;65.30;;;;;;5050467;28;20048;-47
2022/12/21 10:13:42;;;;;;;3.08;0.73;;;14.20;65.20;;;;;;5062872;28;20060;-49
2022/12/21 10:16:19;;;;;;;1.10;0.70;;;14.20;64.20;;;;;;5063869;28;20134;-43
2022/12/21 10:18:59;;;;;;;0.98;0.60;;;14.20;64.40;;;;;;5064099;28;20057;-48
2022/12/21 10:21:40;;;;;;;1.38;0.65;;;14.30;65.80;;;;;;5063415;28;20489;-45
2022/12/21 10:24:17;;;;;;;0.75;0.40;;;14.30;64.90;;;;;;5063000;28;20057;-44
2022/12/21 10:26:44;;;;;;;0.63;0.40;;;14.30;65.00;;;;;;5063639;28;20048;-48
2022/12/21 10:29:17;;;;;;;2.47;0.88;;;14.40;65.20;;;;;;5062760;28;20060;-46
2022/12/21 10:31:46;;;;;;;3.92;1.10;;;14.40;64.80;;;;;;5063034;28;20063;-51
2022/12/21 10:34:17;;;;;;;1.30;1.13;;;14.50;64.30;;;;;;5063070;28;20055;-42
2022/12/21 10:36:46;;;;;;;3.38;2.10;;;14.50;63.30;;;;;;5064180;28;20052;-48
2022/12/21 10:39:17;;;;;;;1.88;1.00;;;14.50;63.00;;;;;;5062347;28;20061;-43
2022/12/21 10:41:50;;;;;;;1.48;0.90;;;14.50;62.60;;;;;;5064044;28;20056;-46
2022/12/21 10:44:19;;;;;;;0.98;0.80;;;14.60;62.10;;;;;;5062639;28;20480;-45
2022/12/21 10:46:47;;;;;;;1.10;0.60;;;14.60;61.50;;;;;;5063077;28;20059;-45
2022/12/21 10:49:21;;;;;;;1.20;0.82;;;14.60;60.80;;;;;;5063185;28;20059;-44
2022/12/21 10:51:48;;;;;;;1.52;0.60;;;14.60;59.80;;;;;;5061493;28;20060;-48
2022/12/21 10:54:25;;;;;;;1.90;0.50;;;14.60;59.80;;;;;;5060724;28;20439;-49
2022/12/21 10:56:53;;;;;;;2.05;1.20;;;14.60;59.80;;;;;;5061070;28;20056;-48
2022/12/21 10:59:24;;;;;;;2.92;1.83;;;14.60;61.00;;;;;;5061799;28;20052;-48
2022/12/21 11:01:52;;;;;;;7.53;3.47;;;14.60;62.10;;;;;;5062873;28;20464;-47
2022/12/21 11:04:28;;;;;;;5.38;3.25;;;14.50;62.10;;;;;;5063175;28;20071;-48
2022/12/21 11:07:06;;;;;;;7.32;4.18;;;14.50;62.10;;;;;;5062468;28;20059;-48
2022/12/21 11:09:39;;;;;;;9.15;4.05;;;14.40;62.00;;;;;;5059267;28;20063;-50
2022/12/21 11:12:20;;;;;;;6.75;4.25;;;14.40;62.00;;;;;;5061750;28;20078;-45
2022/12/21 11:14:49;;;;;;;7.28;4.57;;;14.30;61.60;;;;;;5061224;28;20056;-45
2022/12/21 11:17:22;;;;;;;11.88;4.95;;;14.20;61.60;;;;;;5062999;28;20044;-46
2022/12/21 11:19:52;;;;;;;10.05;5.43;;;14.20;61.70;;;;;;5062815;28;20420;-46
2022/12/21 11:22:26;;;;;;;10.40;5.60;;;14.10;61.70;;;;;;5062973;28;20506;-50
2022/12/21 11:24:56;;;;;;;;;;;14.10;61.50;;;;;;5060826;28;20048;-47
2022/12/21 11:27:26;;;;;;;6.80;4.80;;;14.00;61.80;;;;;;5062179;28;19935;-47
2022/12/21 11:29:57;;;;;;;11.40;5.32;;;14.00;61.70;;;;;;5062761;28;20063;-48
2022/12/21 11:32:25;;;;;;;8.50;5.70;;;14.00;62.00;;;;;;5060982;28;20055;-46
2022/12/21 11:34:54;;;;;;;6.72;5.43;;;13.90;62.00;;;;;;5059480;28;20056;-49
2022/12/21 11:37:27;;;;;;;7.43;5.20;;;13.90;62.00;;;;;;5062524;28;20526;-48
2022/12/21 11:39:57;;;;;;;8.52;5.47;;;13.90;62.10;;;;;;5057858;28;20067;-44
2022/12/21 11:42:26;;;;;;;7.05;5.13;;;13.90;61.70;;;;;;5060062;28;20075;-48
2022/12/21 11:45:19;;;;;;;8.55;5.93;;;13.90;61.30;;;;;;5061768;28;20052;-44
2022/12/21 11:48:01;;;;;;;9.60;5.47;;;13.90;61.20;;;;;;5060796;28;21200;-46
2022/12/21 11:50:44;;;;;;;7.18;5.38;;;14.00;61.20;;;;;;5059409;28;20052;-49
2022/12/21 11:53:18;;;;;;;9.00;6.32;;;14.00;61.10;;;;;;5060658;28;20059;-46
2022/12/21 11:56:04;;;;;;;9.25;6.00;;;14.00;60.90;;;;;;5054939;28;20052;-50
2022/12/21 11:58:47;;;;;;;10.27;5.80;;;14.00;60.50;;;;;;5058189;28;20068;-50
2022/12/21 12:01:28;;;;;;;11.93;6.20;;;14.00;60.50;;;;;;5055820;28;20079;-45
2022/12/21 12:04:09;;;;;;;11.13;6.63;;;13.90;60.40;;;;;;5064349;28;20052;-46
2022/12/21 12:07:02;;;;;;;12.55;6.35;;;13.90;60.00;;;;;;5063853;28;20053;-46
2022/12/21 12:09:59;;;;;;;12.43;5.40;;;13.90;60.10;;;;;;5018312;28;20060;-48
2022/12/21 12:12:37;;;;;;;8.70;6.28;;;13.90;60.80;;;;;;5069541;28;20063;-46
2022/12/21 12:15:27;;;;;;;11.55;6.65;;;13.90;61.10;;;;;;5067273;28;20063;-43
2022/12/21 12:18:10;;;;;;;12.55;7.10;;;13.80;60.00;;;;;;5069122;28;20079;-48
2022/12/21 12:20:52;;;;;;;10.35;5.70;;;13.80;60.20;;;;;;5069110;28;20414;-44
2022/12/21 12:23:27;;;;;;;10.68;5.72;;;13.70;60.20;;;;;;5067706;28;20063;-52
2022/12/21 12:26:07;;;;;;;9.63;5.72;;;13.70;60.40;;;;;;5066526;28;20055;-48
2022/12/21 12:28:51;;;;;;;10.82;6.47;;;13.70;61.00;;;;;;5069339;28;20048;-45
2022/12/21 12:31:31;;;;;;;8.00;5.50;;;13.70;60.60;;;;;;5067216;28;20044;-45
2022/12/21 12:34:16;;;;;;;9.32;5.28;;;13.70;60.90;;;;;;5067992;28;20048;-46
2022/12/21 12:36:57;;;;;;;8.77;5.57;;;13.70;61.00;;;;;;5069796;28;20052;-48
2022/12/21 12:39:35;;;;;;;12.63;5.63;;;13.70;60.80;;;;;;5066872;28;20056;-46
2022/12/21 12:42:08;;;;;;;6.88;4.43;;;13.80;60.70;;;;;;5069031;28;20523;-46
2022/12/21 12:44:49;;;;;;;5.72;4.38;;;13.80;60.50;;;;;;5067643;28;20056;-47
2022/12/21 12:47:26;;;;;;;5.63;4.10;;;13.80;60.50;;;;;;5068941;28;20060;-49
2022/12/21 12:50:06;;;;;;;4.78;3.17;;;13.90;60.40;;;;;;5067629;28;20056;-44
2022/12/21 12:52:55;;;;;;;6.00;3.67;;;13.90;59.70;;;;;;5069165;28;20061;-49
2022/12/21 12:55:26;;;;;;;4.50;3.10;;;13.90;59.40;;;;;;5067702;28;20064;-46
2022/12/21 12:58:00;;;;;;;7.18;3.50;;;13.90;59.50;;;;;;5068667;28;20385;-48
2022/12/21 13:00:32;;;;;;;6.55;3.03;;;13.90;59.30;;;;;;5067621;28;20515;-47
2022/12/21 13:03:13;;;;;;;5.95;3.30;;;13.90;59.20;;;;;;5067915;28;20076;-48
2022/12/21 13:05:54;;;;;;;5.28;3.20;;;13.90;59.00;;;;;;5068532;28;20064;-46
2022/12/21 13:08:35;;;;;;;5.22;3.45;;;13.90;58.80;;;;;;5066908;28;20056;-48
2022/12/21 13:11:09;;;;;;;5.57;3.17;;;13.90;58.80;;;;;;5065340;28;20484;-48
2022/12/21 13:13:46;;;;;;;4.95;3.13;;;13.90;58.70;;;;;;5066171;28;20052;-47
2022/12/21 13:16:19;;;;;;;4.85;2.53;;;13.90;58.80;;;;;;5064261;28;20076;-46
2022/12/21 13:18:52;;;;;;;5.60;3.22;;;13.90;58.80;;;;;;5064466;28;20059;-49
2022/12/21 13:21:23;;;;;;;5.88;3.00;;;13.90;58.80;;;;;;5064845;28;20511;-49
2022/12/21 13:23:54;;;;;;;5.30;2.65;;;13.90;58.90;;;;;;5060633;28;20048;-44
2022/12/21 13:26:27;;;;;;;4.45;2.95;;;14.00;59.50;;;;;;5065322;28;20067;-46